createdAt,value
2019-06-01T00:02:23.520Z,9.55
2019-06-01T00:04:53.441Z,8.00
2019-06-01T00:07:23.520Z,8.65
2019-06-01T00:09:53.443Z,10.13
2019-06-01T00:12:23.871Z,8.20
2019-06-01T00:14:54.066Z,9.18
2019-06-01T00:17:24.045Z,10.30
2019-06-01T00:19:54.184Z,10.45
2019-06-01T00:22:24.420Z,9.80
2019-06-01T00:24:54.560Z,9.60
2019-06-01T00:27:24.451Z,10.70
2019-06-01T00:29:54.769Z,12.50
2019-06-01T00:32:24.890Z,12.15
2019-06-01T00:34:54.755Z,12.10
2019-06-01T00:37:24.975Z,10.83
2019-06-01T00:39:54.829Z,10.58
2019-06-01T00:42:25.404Z,10.67
2019-06-01T00:44:55.670Z,11.53
2019-06-01T00:47:25.559Z,12.10
2019-06-01T00:49:55.431Z,13.93
2019-06-01T00:52:25.404Z,11.95
2019-06-01T00:54:55.310Z,13.72
2019-06-01T00:57:25.875Z,11.23
2019-06-01T00:59:56.202Z,13.88
2019-06-01T01:02:26.095Z,12.15
2019-06-01T01:05:02.409Z,11.83
2019-06-01T01:07:32.717Z,12.63
2019-06-01T01:10:02.619Z,18.20
2019-06-01T01:12:34.249Z,14.60
2019-06-01T01:15:05.051Z,13.20
2019-06-01T01:17:35.163Z,13.40
2019-06-01T01:20:05.272Z,13.63
2019-06-01T01:22:35.275Z,16.60
2019-06-01T01:25:05.458Z,12.63
2019-06-01T01:27:36.026Z,13.20
2019-06-01T01:30:06.209Z,17.15
2019-06-01T01:32:36.089Z,15.25
2019-06-01T01:35:06.127Z,12.83
2019-06-01T01:37:36.148Z,16.35
2019-06-01T01:40:06.136Z,18.05
2019-06-01T01:42:36.345Z,14.07
2019-06-01T01:45:07.433Z,14.97
2019-06-01T01:47:37.703Z,15.45
2019-06-01T01:50:08.207Z,14.55
2019-06-01T01:52:38.064Z,15.90
2019-06-01T01:55:08.058Z,15.20
2019-06-01T01:57:38.217Z,17.90
2019-06-01T02:00:09.135Z,14.90
2019-06-01T02:02:39.262Z,17.48
2019-06-01T02:05:09.896Z,15.10
2019-06-01T02:07:39.871Z,15.60
2019-06-01T02:10:10.843Z,16.95
2019-06-01T02:12:40.718Z,20.32
2019-06-01T02:15:10.888Z,19.82
2019-06-01T02:17:40.807Z,21.77
2019-06-01T02:20:10.975Z,18.50
2019-06-01T02:22:40.823Z,16.95
2019-06-01T02:25:10.875Z,16.77
2019-06-01T02:27:40.840Z,21.27
2019-06-01T02:30:12.562Z,18.53
2019-06-01T02:32:42.580Z,18.50
2019-06-01T02:35:13.350Z,20.72
2019-06-01T02:37:43.916Z,23.83
2019-06-01T02:40:14.573Z,21.82
2019-06-01T02:42:44.581Z,19.00
2019-06-01T02:45:16.964Z,20.52
2019-06-01T02:47:47.080Z,23.60
2019-06-01T02:50:18.425Z,21.05
2019-06-01T02:52:48.677Z,23.50
2019-06-01T02:55:18.950Z,20.37
2019-06-01T02:57:49.239Z,24.80
2019-06-01T03:00:40.500Z,21.60
2019-06-01T03:03:10.647Z,26.10
2019-06-01T03:05:41.146Z,21.25
2019-06-01T03:08:11.527Z,25.82
2019-06-01T03:10:41.718Z,22.45
2019-06-01T03:13:13.066Z,21.23
2019-06-01T03:15:44.804Z,21.25
2019-06-01T03:18:17.779Z,21.87
2019-06-01T03:20:50.158Z,24.35
2019-06-01T03:23:23.175Z,23.80
2019-06-01T03:25:54.804Z,22.13
2019-06-01T03:28:27.290Z,25.33
2019-06-01T03:30:57.299Z,21.82
2019-06-01T03:33:27.558Z,21.80
2019-06-01T03:35:57.608Z,21.48
2019-06-01T03:38:28.086Z,24.87
2019-06-01T03:40:58.425Z,22.48
2019-06-01T03:43:29.212Z,20.57
2019-06-01T03:46:00.425Z,18.30
2019-06-01T03:48:30.688Z,20.10
2019-06-01T03:51:01.560Z,22.57
2019-06-01T03:53:32.961Z,18.85
2019-06-01T03:56:03.250Z,14.68
2019-06-01T03:58:33.511Z,15.43
2019-06-01T04:01:03.516Z,14.95
2019-06-01T04:03:33.804Z,15.33
2019-06-01T04:06:03.888Z,15.70
2019-06-01T04:08:33.847Z,14.50
2019-06-01T04:11:03.851Z,19.45
2019-06-01T04:13:33.783Z,16.95
2019-06-01T04:16:03.827Z,12.43
2019-06-01T04:18:33.799Z,15.10
2019-06-01T04:21:04.269Z,14.58
2019-06-01T04:23:36.354Z,13.88
2019-06-01T04:26:06.625Z,12.90
2019-06-01T04:28:36.903Z,13.20
2019-06-01T04:31:07.053Z,12.65
2019-06-01T04:33:38.486Z,13.55
2019-06-01T04:36:08.987Z,14.00
2019-06-01T04:38:38.978Z,12.85
2019-06-01T04:41:09.753Z,14.68
2019-06-01T04:43:40.210Z,12.33
2019-06-01T04:46:10.358Z,12.80
2019-06-01T04:48:40.520Z,15.70
2019-06-01T04:51:11.746Z,14.40
2019-06-01T04:53:42.330Z,13.98
2019-06-01T04:56:13.101Z,13.93
2019-06-01T04:58:43.209Z,12.30
2019-06-01T05:01:13.197Z,13.68
2019-06-01T05:03:43.052Z,12.33
2019-06-01T05:06:13.453Z,12.05
2019-06-01T05:08:43.974Z,14.50
2019-06-01T05:11:15.577Z,12.13
2019-06-01T05:13:45.667Z,12.93
2019-06-01T05:16:16.661Z,12.07
2019-06-01T05:18:46.736Z,12.95
2019-06-01T05:21:17.168Z,15.60
2019-06-01T05:23:47.150Z,15.23
2019-06-01T05:26:17.439Z,14.53
2019-06-01T05:28:47.664Z,12.75
2019-06-01T05:31:24.704Z,15.63
2019-06-01T05:33:49.701Z,13.08
2019-06-01T05:36:19.823Z,14.55
2019-06-01T05:38:49.971Z,13.35
2019-06-01T05:41:20.078Z,14.27
2019-06-01T05:43:50.387Z,12.78
2019-06-01T05:46:22.289Z,13.68
2019-06-01T05:48:58.910Z,12.20
2019-06-01T05:51:29.078Z,12.15
2019-06-01T05:53:58.965Z,12.55
2019-06-01T05:56:29.075Z,12.67
2019-06-01T05:58:59.505Z,14.15
2019-06-01T06:01:30.277Z,11.90
2019-06-01T06:04:00.569Z,12.73
2019-06-01T06:06:30.507Z,12.20
2019-06-01T06:09:00.634Z,12.82
2019-06-01T06:11:30.752Z,14.10
2019-06-01T06:14:01.183Z,15.77
2019-06-01T06:16:31.782Z,18.48
2019-06-01T06:19:02.794Z,13.40
2019-06-01T06:21:35.651Z,12.33
2019-06-01T06:24:05.790Z,12.47
2019-06-01T06:26:36.602Z,13.25
2019-06-01T06:29:06.927Z,14.20
2019-06-01T06:31:36.967Z,12.80
2019-06-01T06:34:07.035Z,13.03
2019-06-01T06:36:37.127Z,12.50
2019-06-01T06:39:08.533Z,11.95
2019-06-01T06:41:38.817Z,11.37
2019-06-01T06:44:09.008Z,10.80
2019-06-01T06:46:39.141Z,12.20
2019-06-01T06:49:10.120Z,10.63
2019-06-01T06:51:40.810Z,9.40
2019-06-01T06:54:10.908Z,10.50
2019-06-01T06:56:40.959Z,8.95
2019-06-01T06:59:11.821Z,10.03
2019-06-01T07:01:42.635Z,10.35
2019-06-01T07:04:13.435Z,7.95
2019-06-01T07:06:47.193Z,9.35
2019-06-01T07:09:19.840Z,9.10
2019-06-01T07:11:49.661Z,8.30
2019-06-01T07:14:19.786Z,8.68
2019-06-01T07:16:50.002Z,6.90
2019-06-01T07:19:21.470Z,9.83
2019-06-01T07:21:51.928Z,9.03
2019-06-01T07:24:22.320Z,9.55
2019-06-01T07:26:52.563Z,7.57
2019-06-01T07:29:24.122Z,7.42
2019-06-01T07:31:55.600Z,9.15
2019-06-01T07:34:35.844Z,7.00
2019-06-01T07:36:58.363Z,8.63
2019-06-01T07:39:29.204Z,8.00
2019-06-01T07:41:59.414Z,7.80
2019-06-01T07:44:29.443Z,7.58
2019-06-01T07:47:00.043Z,6.92
2019-06-01T07:49:32.935Z,6.20
2019-06-01T07:52:13.017Z,6.55
2019-06-01T07:54:34.868Z,5.83
2019-06-01T07:57:05.228Z,6.50
2019-06-01T07:59:35.340Z,6.47
2019-06-01T08:02:05.910Z,5.83
2019-06-01T08:04:52.388Z,7.45
2019-06-01T08:07:07.751Z,7.47
2019-06-01T08:09:37.885Z,8.45
2019-06-01T08:12:08.312Z,5.70
2019-06-01T08:14:38.803Z,6.65
2019-06-01T08:17:08.928Z,6.85
2019-06-01T08:19:39.123Z,6.85
2019-06-01T08:22:09.230Z,5.00
2019-06-01T08:24:39.572Z,5.70
2019-06-01T08:27:09.643Z,5.83
2019-06-01T08:29:39.618Z,5.90
2019-06-01T08:32:10.204Z,7.10
2019-06-01T08:34:40.125Z,5.90
2019-06-01T08:37:10.432Z,5.25
2019-06-01T08:39:40.464Z,6.00
2019-06-01T08:42:10.655Z,6.10
2019-06-01T08:44:40.679Z,6.50
2019-06-01T08:47:12.173Z,6.00
2019-06-01T08:49:42.581Z,5.15
2019-06-01T08:52:12.964Z,5.12
2019-06-01T08:54:43.203Z,4.83
2019-06-01T08:57:13.315Z,4.00
2019-06-01T08:59:43.408Z,5.90
2019-06-01T09:02:14.034Z,5.60
2019-06-01T09:04:44.473Z,5.10
2019-06-01T09:07:14.700Z,4.75
2019-06-01T09:09:45.252Z,7.75
2019-06-01T09:12:15.817Z,5.00
2019-06-01T09:14:48.646Z,5.37
2019-06-01T09:17:19.040Z,6.00
2019-06-01T09:19:49.263Z,5.60
2019-06-01T09:22:19.438Z,3.77
2019-06-01T09:24:53.296Z,4.45
2019-06-01T09:27:25.615Z,5.10
2019-06-01T09:29:56.330Z,3.58
2019-06-01T09:32:37.209Z,4.90
2019-06-01T09:35:18.843Z,4.08
2019-06-01T10:53:20.412Z,2.92
2019-06-01T11:06:36.251Z,5.20
2019-06-01T16:08:31.036Z,6.77
2019-06-01T18:44:52.096Z,7.70
2019-06-01T18:52:50.656Z,5.78
2019-06-01T18:54:47.587Z,7.40
2019-06-01T18:57:37.799Z,5.00
2019-06-01T19:00:21.162Z,7.00
2019-06-01T19:02:51.882Z,7.85
2019-06-01T19:09:58.960Z,7.07
2019-06-01T19:16:28.960Z,7.57
2019-06-01T19:19:38.046Z,9.48
2019-06-01T19:22:29.123Z,7.30
2019-06-01T19:36:13.059Z,10.48
2019-06-01T19:38:58.252Z,10.97
2019-06-01T19:41:52.112Z,9.23
2019-06-01T19:44:36.742Z,9.50
2019-06-01T19:47:05.713Z,12.90
2019-06-01T19:49:46.251Z,13.72
2019-06-01T19:52:28.792Z,12.35
2019-06-01T19:55:17.044Z,9.45
2019-06-01T19:58:03.611Z,12.05
2019-06-01T20:03:58.607Z,11.80
2019-06-01T20:06:48.951Z,10.10
2019-06-01T20:10:27.407Z,9.90
2019-06-01T20:13:23.709Z,11.10
2019-06-01T20:16:39.247Z,11.50
2019-06-01T20:19:48.621Z,10.20
2019-06-01T20:22:34.002Z,7.40
2019-06-01T20:25:06.613Z,10.60
2019-06-01T20:28:50.183Z,11.77
2019-06-01T20:31:32.943Z,7.90
2019-06-01T20:34:15.901Z,8.05
2019-06-01T20:45:24.334Z,9.83
2019-06-01T21:00:58.157Z,9.18
2019-06-01T21:13:08.194Z,16.40
2019-06-01T21:21:54.197Z,66.95
2019-06-01T21:29:08.474Z,98.45
2019-06-01T21:31:41.760Z,91.65
2019-06-01T21:34:12.039Z,98.27
2019-06-01T21:36:54.050Z,112.90
2019-06-01T21:40:06.656Z,114.97
2019-06-01T21:43:03.224Z,81.80
2019-06-01T21:45:54.756Z,48.60
2019-06-01T21:56:09.939Z,11.53
2019-06-01T22:02:35.823Z,11.18
2019-06-01T22:23:26.623Z,14.15
2019-06-01T22:26:33.934Z,15.77
2019-06-01T22:41:36.392Z,19.07
2019-06-01T22:49:24.714Z,16.73
2019-06-01T22:57:00.493Z,10.75
2019-06-01T23:07:05.237Z,12.07
2019-06-01T23:10:29.972Z,12.93
2019-06-01T23:14:01.618Z,11.83
2019-06-01T23:20:53.251Z,12.40
2019-06-01T23:23:50.617Z,10.90
2019-06-01T23:33:28.784Z,13.58
2019-06-01T23:40:07.529Z,13.13
2019-06-01T23:43:12.524Z,14.30
2019-06-01T23:46:38.666Z,14.85
2019-06-01T23:49:56.672Z,16.10
2019-06-01T23:52:36.512Z,13.83
2019-06-01T23:55:45.143Z,13.40
2019-06-01T23:58:58.273Z,15.23
